Island Wind — WDG9077 — position and weather

sailwx.info

Track history (hours):
 
Tides and Currents Weather Stations Pressure Air Temp Water Temp Dewpoint Dewpoint Depression Visibility Wind Speed Wind Dir Waves Ship Positions

Island Wind

Owner: Island Tug and Barge, Seattle, WA. More information available from US FCC via Universal Licensing System and Coast Guard Vessel Documentation Center.

Last reported at 2017-Nov-17 07:45 UTC. Time now 2017-Nov-21 02:22 UTC.
Position N 47°34' W 122°21'.

Length 30 m.

Type: Towing. MMSI: 359195462.

Date/timePositionNaut miles runAvg speedWind from/ knotsBaromVisibWave heightAir tempDewpointWater temp
2017-Nov-17 07:45N 47°34' W 122°21'0 0.4
2017-Nov-17 07:30N 47°34' W 122°21'3 5.8
2017-Nov-17 07:00N 47°34' W 122°26'510.3
2017-Nov-17 06:30N 47°30' W 122°30'611.0
2017-Nov-17 06:00N 47°25' W 122°32'510.0
2017-Nov-17 05:30N 47°20' W 122°31'5 2.9
2017-Nov-17 03:50N 47°17' W 122°25'1 4.3
2017-Nov-17 03:30N 47°18' W 122°27'3 6.6
2017-Nov-17 03:00N 47°20' W 122°31'3 6.0
2017-Nov-17 02:30N 47°22' W 122°32'3 5.3
2017-Nov-17 02:00N 47°25' W 122°32'3 5.4
2017-Nov-17 01:30N 47°28' W 122°31'3 5.6
2017-Nov-17 01:00N 47°30' W 122°29'3 5.5
2017-Nov-17 00:30N 47°33' W 122°28'3 6.0
2017-Nov-17 00:00N 47°35' W 122°25'2 3.5
2017-Nov-16 23:30N 47°35' W 122°22'2 5.0
2017-Nov-16 23:00N 47°35' W 122°26'5 9.6
2017-Nov-16 22:30N 47°30' W 122°29'5 9.7
2017-Nov-16 22:00N 47°26' W 122°31'5 9.7
2017-Nov-16 21:30N 47°21' W 122°32'5 9.5
2017-Nov-16 21:00N 47°18' W 122°27'0 0.5
2017-Nov-16 20:30N 47°18' W 122°26'4 7.3
2017-Nov-16 20:00N 47°20' W 122°31'4 7.1
2017-Nov-16 19:30N 47°23' W 122°32'4 7.3
2017-Nov-16 19:00N 47°27' W 122°31'4 7.3
2017-Nov-16 18:30N 47°30' W 122°29'3 6.1
2017-Nov-16 18:00N 47°33' W 122°28'3 5.8
2017-Nov-16 17:30N 47°35' W 122°25'2 4.5
2017-Nov-16 17:00N 47°37' W 122°23'0 0.9
2017-Nov-16 16:30N 47°36' W 122°23'1 1.6
2017-Nov-16 16:01N 47°35' W 122°22'1 2.3
2017-Nov-16 15:30N 47°34' W 122°21'0 0.0
2017-Nov-16 00:10N 47°34' W 122°21'0 0.0
2017-Nov-16 00:01N 47°34' W 122°21'3 6.7
2017-Nov-15 23:31N 47°37' W 122°24'4 8.0
2017-Nov-15 23:00N 47°41' W 122°26'4 8.7
2017-Nov-15 22:30N 47°45' W 122°25'4 8.8
2017-Nov-15 22:00N 47°49' W 122°24'5 9.1
2017-Nov-15 21:30N 47°54' W 122°22'5 9.0
2017-Nov-15 21:00N 47°58' W 122°20'510.1
2017-Nov-15 20:30N 48°03' W 122°23'4 7.1
2017-Nov-15 20:00N 48°05' W 122°27'11 7.3
2017-Nov-15 18:26N 48°16' W 122°32'4 7.7
2017-Nov-15 17:57N 48°20' W 122°32'3 5.6
2017-Nov-15 17:20N 48°23' W 122°30'3 7.8
2017-Nov-15 17:00N 48°26' W 122°30'4 7.8
2017-Nov-15 16:31N 48°29' W 122°32'4 8.3
2017-Nov-15 16:00N 48°33' W 122°34'4 7.2
2017-Nov-15 15:30N 48°36' W 122°37'4 8.3
2017-Nov-15 15:00N 48°40' W 122°40'4 7.9
2017-Nov-15 14:30N 48°43' W 122°45'4 7.6
2017-Nov-15 14:00N 48°45' W 122°49'5 6.5
2017-Nov-15 13:14N 48°48' W 122°55'2 6.4
2017-Nov-15 12:55N 48°50' W 122°57'5 4.7
2017-Nov-15 11:48N 48°54' W 123°01'1 3.9
2017-Nov-15 11:26N 48°55' W 123°03'2 4.0
2017-Nov-15 10:53N 48°57' W 123°05'2 3.9
2017-Nov-15 10:26N 48°58' W 123°07'2 4.2
2017-Nov-15 09:58N 48°59' W 123°10'2 3.3
2017-Nov-15 09:15N 49°00' W 123°13'1 3.0
2017-Nov-15 08:59N 49°01' W 123°13'2 2.6
2017-Nov-15 08:16N 49°02' W 123°16'1 3.3
2017-Nov-15 07:50N 49°03' W 123°17'2 4.8
2017-Nov-15 07:29N 49°05' W 123°19'3 6.6
2017-Nov-15 07:00N 49°07' W 123°16'3 5.1
2017-Nov-15 06:25N 49°07' W 123°11'1 1.5
2017-Nov-15 06:00N 49°07' W 123°12'1 1.5
2017-Nov-15 05:28N 49°08' W 123°13'1 1.8
2017-Nov-15 05:00N 49°08' W 123°15'1 2.1
2017-Nov-15 04:27N 49°07' W 123°16'1 1.3
2017-Nov-15 03:58N 49°07' W 123°17'1 1.1
2017-Nov-15 03:30N 49°06' W 123°18'1 1.5
2017-Nov-15 03:00N 49°06' W 123°18'1 1.7
2017-Nov-15 02:30N 49°05' W 123°19'3 4.0
2017-Nov-15 01:50N 49°03' W 123°17'2 5.5
2017-Nov-15 01:29N 49°02' W 123°16'3 5.3
2017-Nov-15 01:00N 49°00' W 123°13'3 5.5
2017-Nov-15 00:30N 48°58' W 123°10'3 5.6
2017-Nov-15 00:00N 48°56' W 123°06'18 7.2
2017-Nov-14 21:29N 48°45' W 122°45'4 8.2
2017-Nov-14 21:01N 48°41' W 122°43'4 8.0
2017-Nov-14 20:30N 48°37' W 122°44'5 9.0
2017-Nov-14 20:00N 48°33' W 122°45'4 8.7
2017-Nov-14 19:30N 48°29' W 122°44'4 8.4
2017-Nov-14 19:00N 48°24' W 122°44'24 6.5
2017-Nov-14 15:22N 48°01' W 122°37'3 7.5
2017-Nov-14 15:00N 47°59' W 122°35'4 8.2
2017-Nov-14 14:30N 47°56' W 122°30'4 7.1
2017-Nov-14 14:00N 47°53' W 122°28'4 7.8
2017-Nov-14 13:30N 47°49' W 122°27'4 7.8
2017-Nov-14 13:00N 47°45' W 122°26'4 7.5
2017-Nov-14 12:30N 47°42' W 122°26'4 7.4
2017-Nov-14 12:00N 47°38' W 122°26'3 6.7
2017-Nov-14 11:31N 47°36' W 122°22'2 3.1
2017-Nov-14 11:01N 47°34' W 122°22'1 1.5
2017-Nov-14 10:30N 47°34' W 122°21'0 0.1
2017-Nov-14 10:01N 47°34' W 122°21'1 2.9
2017-Nov-14 09:31N 47°35' W 122°22'1 1.0
2017-Nov-14 09:01N 47°36' W 122°22'1 1.7
2017-Nov-14 08:31N 47°36' W 122°23'3 5.7
2017-Nov-14 08:01N 47°38' W 122°26'3 5.3
2017-Nov-14 07:31N 47°41' W 122°27'3 5.2
2017-Nov-14 07:00N 47°43' W 122°26'2 4.7
2017-Nov-14 06:30N 47°46' W 122°25'2 4.7
2017-Nov-14 06:00N 47°48' W 122°25'2 4.0
2017-Nov-14 05:31N 47°50' W 122°24'2 4.0
2017-Nov-14 05:00N 47°52' W 122°26'2 4.7
2017-Nov-14 04:31N 47°53' W 122°28'2 4.3
2017-Nov-14 04:00N 47°55' W 122°30'3 5.3
2017-Nov-14 03:29N 47°57' W 122°33'2 4.4
2017-Nov-14 02:57N 47°58' W 122°36'3 3.3
2017-Nov-14 02:04N 48°01' W 122°37'0 2.8
2017-Nov-14 01:58N 48°01' W 122°37'2 3.3
2017-Nov-14 01:18N 48°03' W 122°37'1 2.6
2017-Nov-14 00:59N 48°04' W 122°37'75 3.3
2017-Nov-13 02:00N 49°15' W 123°15'0 0.0
2017-Nov-13 01:30N 49°15' W 123°15'0 0.0
2017-Nov-13 01:00N 49°15' W 123°15'0 0.0
2017-Nov-13 00:31N 49°15' W 123°15'0 0.0
2017-Nov-13 00:00N 49°15' W 123°15'0 0.0
2017-Nov-12 23:30N 49°15' W 123°15'0 0.0
2017-Nov-12 23:00N 49°15' W 123°15'0 0.0
2017-Nov-12 22:30N 49°15' W 123°15'0 0.0
2017-Nov-12 22:00N 49°15' W 123°15'0 0.0
2017-Nov-12 21:31N 49°15' W 123°15'0 0.0
2017-Nov-12 21:00N 49°15' W 123°15'0 0.0
2017-Nov-12 20:30N 49°15' W 123°15'0 0.0
2017-Nov-12 20:00N 49°15' W 123°15'0 0.0
2017-Nov-12 19:30N 49°15' W 123°15'0 0.0
2017-Nov-12 19:00N 49°15' W 123°15'0 0.0
2017-Nov-12 18:30N 49°15' W 123°15'0 0.0
2017-Nov-12 18:00N 49°15' W 123°15'0 0.0
2017-Nov-12 17:30N 49°15' W 123°15'0 0.0
2017-Nov-12 17:00N 49°15' W 123°15'0 0.0
2017-Nov-12 16:30N 49°15' W 123°15'0 0.0
2017-Nov-12 16:00N 49°15' W 123°15'0 0.0
2017-Nov-12 15:30N 49°15' W 123°15'0 0.0
2017-Nov-12 15:00N 49°15' W 123°15'0 0.0
2017-Nov-12 14:30N 49°15' W 123°15'0 0.0
2017-Nov-12 14:00N 49°15' W 123°15'0 0.0
2017-Nov-12 13:30N 49°15' W 123°15'0 0.0
2017-Nov-12 13:00N 49°15' W 123°15'0 0.0
2017-Nov-12 12:30N 49°15' W 123°15'0 0.0
2017-Nov-12 12:00N 49°15' W 123°15'0 0.0
2017-Nov-12 11:30N 49°15' W 123°15'0 0.0
2017-Nov-12 11:00N 49°15' W 123°15'0 0.0
2017-Nov-12 10:30N 49°15' W 123°15'0 0.0
2017-Nov-12 10:00N 49°15' W 123°15'0 0.0
2017-Nov-12 09:30N 49°15' W 123°15'0 0.0
2017-Nov-12 08:59N 49°15' W 123°15'0 0.0
2017-Nov-12 08:30N 49°15' W 123°15'1 1.6
2017-Nov-12 08:00N 49°15' W 123°16'1 2.3
2017-Nov-12 07:30N 49°15' W 123°18'1 2.4
2017-Nov-12 07:00N 49°14' W 123°18'2 4.1
2017-Nov-12 06:30N 49°12' W 123°19'2 4.1
2017-Nov-12 06:00N 49°10' W 123°20'2 4.4
2017-Nov-12 05:30N 49°07' W 123°20'2 4.3
2017-Nov-12 05:00N 49°05' W 123°20'2 4.5
2017-Nov-12 04:30N 49°03' W 123°18'3 4.7
2017-Nov-12 03:57N 49°02' W 123°15'2 4.2
2017-Nov-12 03:31N 49°00' W 123°13'2 4.0
2017-Nov-12 02:58N 48°59' W 123°11'2 3.9
2017-Nov-12 02:28N 48°58' W 123°09'3 4.2
2017-Nov-12 01:48N 48°56' W 123°06'1 3.3
2017-Nov-12 01:28N 48°55' W 123°04'2 2.8
2017-Nov-12 00:48N 48°54' W 123°02'1 3.3
2017-Nov-12 00:23N 48°53' W 123°00'13 4.2
2017-Nov-11 21:20N 48°45' W 122°45'2 4.6
2017-Nov-11 20:59N 48°43' W 122°44'3 5.3
2017-Nov-11 20:31N 48°41' W 122°43'3 5.1
2017-Nov-11 20:01N 48°39' W 122°43'3 5.0
2017-Nov-11 19:29N 48°36' W 122°45'4 8.8
2017-Nov-11 19:00N 48°32' W 122°44'5 9.9
2017-Nov-11 18:30N 48°27' W 122°44'5 8.9
2017-Nov-11 17:57N 48°22' W 122°45'19 5.1
2017-Nov-11 14:13N 48°04' W 122°38'2 7.0
2017-Nov-11 13:59N 48°02' W 122°37'4 7.3
2017-Nov-11 13:30N 47°59' W 122°35'4 7.5
2017-Nov-11 13:00N 47°56' W 122°31'4 7.7
2017-Nov-11 12:30N 47°53' W 122°28'4 8.2
2017-Nov-11 12:01N 47°49' W 122°26'4 8.2
2017-Nov-11 11:31N 47°45' W 122°26'4 8.3
2017-Nov-11 11:01N 47°41' W 122°27'4 7.8
2017-Nov-11 10:30N 47°37' W 122°25'3 5.6
2017-Nov-11 10:01N 47°35' W 122°22'2 3.0
2017-Nov-11 09:31N 47°34' W 122°21'0 0.9
2017-Nov-11 09:00N 47°34' W 122°21'0 0.0
2017-Nov-11 08:31N 47°34' W 122°21'0 0.0
2017-Nov-11 08:01N 47°34' W 122°21'0 0.0
2017-Nov-11 07:31N 47°34' W 122°21'0 0.0
2017-Nov-11 07:00N 47°34' W 122°21'0 0.0
2017-Nov-11 06:30N 47°34' W 122°21'0 0.0
2017-Nov-11 06:01N 47°34' W 122°21'0 0.0
2017-Nov-11 05:31N 47°34' W 122°21'0 0.0
2017-Nov-11 05:00N 47°34' W 122°21'0 0.0
2017-Nov-11 04:30N 47°34' W 122°21'1 1.1
2017-Nov-11 04:00N 47°34' W 122°21'0 0.0
2017-Nov-11 03:30N 47°34' W 122°21'0 0.3
2017-Nov-11 03:00N 47°34' W 122°21'0 0.3
2017-Nov-11 02:30N 47°34' W 122°21'1 2.6
2017-Nov-11 02:01N 47°35' W 122°22'2 4.2
2017-Nov-11 01:30N 47°36' W 122°25'3 5.2
2017-Nov-11 01:00N 47°33' W 122°27'3 5.8
2017-Nov-11 00:31N 47°31' W 122°29'3 6.5
2017-Nov-11 00:00N 47°28' W 122°31'3 6.3
2017-Nov-10 23:30N 47°25' W 122°32'3 6.1
2017-Nov-10 23:01N 47°22' W 122°32'4 7.0
2017-Nov-10 22:30N 47°18' W 122°33'4 7.6
2017-Nov-10 21:58N 47°14' W 122°34'3 6.6
2017-Nov-10 21:30N 47°12' W 122°37'3 6.0
2017-Nov-10 21:00N 47°09' W 122°39'1 1.3
2017-Nov-10 20:20N 47°08' W 122°39'1 1.7
2017-Nov-10 20:01N 47°09' W 122°38'0 0.0
2017-Nov-10 19:25N 47°09' W 122°38'0 0.0
2017-Nov-10 18:58N 47°09' W 122°38'0 0.1
2017-Nov-10 18:30N 47°09' W 122°38'0 0.1
2017-Nov-10 17:57N 47°09' W 122°38'0 0.0
2017-Nov-10 17:29N 47°09' W 122°38'0 0.0
2017-Nov-10 16:52N 47°09' W 122°38'1 1.5
2017-Nov-10 16:30N 47°08' W 122°39'0 0.1
2017-Nov-10 15:55N 47°08' W 122°39'0 0.0
2017-Nov-10 15:30N 47°08' W 122°39'0 0.1
2017-Nov-10 14:52N 47°08' W 122°39'1 1.5
2017-Nov-10 14:10N 47°09' W 122°39'0 2.3
2017-Nov-10 13:58N 47°10' W 122°39'3 5.9
2017-Nov-10 13:27N 47°12' W 122°37'4 7.9
2017-Nov-10 12:59N 47°15' W 122°34'4 7.9
2017-Nov-10 12:30N 47°19' W 122°34'3 5.8
2017-Nov-10 12:00N 47°22' W 122°32'3 5.2
2017-Nov-10 11:30N 47°25' W 122°32'3 5.3
2017-Nov-10 11:00N 47°27' W 122°31'3 5.3
2017-Nov-10 10:30N 47°30' W 122°30'3 5.0
2017-Nov-10 10:00N 47°32' W 122°28'3 5.4
2017-Nov-10 09:31N 47°34' W 122°27'3 5.2
2017-Nov-10 09:00N 47°36' W 122°24'2 3.9
2017-Nov-10 08:30N 47°35' W 122°22'1 2.3
2017-Nov-10 08:01N 47°34' W 122°21'1 1.4
2017-Nov-10 07:31N 47°34' W 122°21'0 0.0
2017-Nov-10 07:00N 47°34' W 122°21'0 0.0
2017-Nov-10 06:30N 47°34' W 122°21'0 0.0
2017-Nov-10 06:01N 47°34' W 122°21'0 0.0
2017-Nov-10 05:30N 47°34' W 122°21'0 0.0
2017-Nov-10 04:50N 47°34' W 122°21'0 0.0
2017-Nov-10 04:28N 47°34' W 122°21'0 0.0
2017-Nov-10 03:57N 47°34' W 122°21'0 0.0
2017-Nov-10 03:24N 47°34' W 122°21'0 0.0
2017-Nov-10 03:01N 47°34' W 122°21'2 4.5
2017-Nov-10 02:30N 47°35' W 122°24'4 7.9
2017-Nov-10 02:00N 47°32' W 122°26'4 7.6
2017-Nov-10 01:31N 47°29' W 122°30'4 8.7
2017-Nov-10 01:00N 47°25' W 122°32'4 8.6
2017-Nov-10 00:30N 47°21' W 122°32'4 8.1
2017-Nov-10 00:01N 47°18' W 122°27'3 5.7
2017-Nov-09 23:31N 47°16' W 122°24'2 3.3
2017-Nov-09 23:00N 47°17' W 122°26'2 3.5
2017-Nov-09 22:31N 47°18' W 122°28'2 4.1
2017-Nov-09 22:00N 47°19' W 122°31'2 3.5
2017-Nov-09 21:30N 47°19' W 122°33'3 6.9
2017-Nov-09 21:00N 47°15' W 122°34'3 6.2
2017-Nov-09 20:30N 47°13' W 122°36'3 5.6
2017-Nov-09 19:59N 47°10' W 122°38'2 3.3
2017-Nov-09 19:22N 47°08' W 122°39'0 0.0
2017-Nov-09 18:59N 47°08' W 122°39'0 0.0
2017-Nov-09 18:28N 47°08' W 122°39'0 0.0
2017-Nov-09 17:59N 47°08' W 122°39'1 2.3
2017-Nov-09 17:28N 47°09' W 122°39'4 7.6
2017-Nov-09 17:00N 47°12' W 122°36'510.0
2017-Nov-09 16:30N 47°17' W 122°33'3 5.3
2017-Nov-09 16:01N 47°19' W 122°30'4 7.9
2017-Nov-09 15:30N 47°17' W 122°25'0 0.7
2017-Nov-09 15:00N 47°17' W 122°25'0 0.2
2017-Nov-09 13:12N 47°17' W 122°24'1 3.5
2017-Nov-09 13:00N 47°17' W 122°25'1 1.8
2017-Nov-09 12:31N 47°17' W 122°27'0 0.2
2017-Nov-09 12:00N 47°17' W 122°26'0 0.4
2017-Nov-09 11:30N 47°18' W 122°27'1 1.8
2017-Nov-09 11:01N 47°18' W 122°28'2 3.0
2017-Nov-09 10:30N 47°19' W 122°30'2 3.1
2017-Nov-09 10:00N 47°19' W 122°32'2 3.5
2017-Nov-09 09:30N 47°18' W 122°33'4 7.3
2017-Nov-09 09:00N 47°14' W 122°35'3 5.8
2017-Nov-09 08:30N 47°12' W 122°36'3 5.0
2017-Nov-09 08:00N 47°10' W 122°39'2 2.9
2017-Nov-09 07:29N 47°08' W 122°39'0 0.0
2017-Nov-09 07:00N 47°08' W 122°39'0 0.0
2017-Nov-09 06:30N 47°08' W 122°39'0 0.0
2017-Nov-09 05:58N 47°08' W 122°39'0 0.0
2017-Nov-09 05:30N 47°08' W 122°39'0 0.0
2017-Nov-09 04:58N 47°08' W 122°39'0 0.0
2017-Nov-09 04:28N 47°08' W 122°39'0 0.0
2017-Nov-09 04:00N 47°08' W 122°39'0 0.0
2017-Nov-09 03:30N 47°08' W 122°39'0 0.0
2017-Nov-09 02:57N 47°08' W 122°39'0 0.0
2017-Nov-09 02:30N 47°08' W 122°39'1 1.1
2017-Nov-09 02:00N 47°09' W 122°38'0 0.0
2017-Nov-09 01:16N 47°09' W 122°38'0 0.0
2017-Nov-09 00:58N 47°09' W 122°38'0 0.0
2017-Nov-09 00:29N 47°09' W 122°38'0 0.0
2017-Nov-08 23:47N 47°09' W 122°38'1 2.1
2017-Nov-08 23:30N 47°08' W 122°39'3 5.2
2017-Nov-08 23:00N 47°11' W 122°39'2 4.5
2017-Nov-08 22:30N 47°12' W 122°37'3 5.1
2017-Nov-08 22:00N 47°14' W 122°34'2 3.9
2017-Nov-08 21:30N 47°16' W 122°33'2 3.8
2017-Nov-08 21:00N 47°18' W 122°33'1 3.1
2017-Nov-08 20:31N 47°19' W 122°32'3 6.3
2017-Nov-08 20:00N 47°18' W 122°28'3 1.2
2017-Nov-08 17:46N 47°17' W 122°24'2 7.6
2017-Nov-08 17:30N 47°18' W 122°27'4 8.3
2017-Nov-08 17:00N 47°20' W 122°32'4 8.4
2017-Nov-08 16:30N 47°24' W 122°32'4 8.4
2017-Nov-08 16:01N 47°28' W 122°31'4 8.6
2017-Nov-08 15:30N 47°32' W 122°28'4 8.4
2017-Nov-08 15:01N 47°36' W 122°24'2 4.6
2017-Nov-08 14:30N 47°34' W 122°21'0 0.6
2017-Nov-08 14:01N 47°34' W 122°21'0 0.6
2017-Nov-08 13:31N 47°34' W 122°21'1 1.3
2017-Nov-08 13:01N 47°34' W 122°21'0 0.0
2017-Nov-08 12:31N 47°34' W 122°21'0 0.0
2017-Nov-08 12:00N 47°34' W 122°21'0 0.0
2017-Nov-08 11:31N 47°34' W 122°21'0 0.0
2017-Nov-08 11:01N 47°34' W 122°21'0 0.0
2017-Nov-08 10:31N 47°34' W 122°21'0 0.0
2017-Nov-08 10:00N 47°34' W 122°21'0 0.0
2017-Nov-08 09:30N 47°34' W 122°21'0 0.0
2017-Nov-08 09:01N 47°34' W 122°21'0 0.0
2017-Nov-08 08:31N 47°34' W 122°21'0 0.0
2017-Nov-08 08:00N 47°34' W 122°21'0 0.0
2017-Nov-08 07:31N 47°34' W 122°21'0 0.0
2017-Nov-08 07:01N 47°34' W 122°21'0 0.0
2017-Nov-08 06:31N 47°34' W 122°21'1 1.3
2017-Nov-08 06:00N 47°34' W 122°21'1 1.3
2017-Nov-08 05:30N 47°34' W 122°21'0 0.0
2017-Nov-08 05:00N 47°34' W 122°21'0 0.0
2017-Nov-08 04:30N 47°34' W 122°21'1 1.3
2017-Nov-08 04:00N 47°34' W 122°21'1 1.4
2017-Nov-08 03:30N 47°34' W 122°21'0 0.8
2017-Nov-08 03:00N 47°34' W 122°21'0 0.6
2017-Nov-08 02:30N 47°34' W 122°21'0 0.0
2017-Nov-08 02:00N 47°34' W 122°21'0 0.0
2017-Nov-08 01:29N 47°34' W 122°21'0 0.0
2017-Nov-08 01:01N 47°34' W 122°21'0 0.0
2017-Nov-08 00:31N 47°34' W 122°21'0 0.0
2017-Nov-08 00:01N 47°34' W 122°21'0 0.0
2017-Nov-07 23:30N 47°34' W 122°21'0 0.0
2017-Nov-07 23:00N 47°34' W 122°21'1 1.2
2017-Nov-07 22:30N 47°35' W 122°22'3 5.5
2017-Nov-07 22:00N 47°37' W 122°24'3 5.8
2017-Nov-07 21:31N 47°39' W 122°27'3 6.1
2017-Nov-07 21:00N 47°43' W 122°26'3 7.0
2017-Nov-07 20:30N 47°46' W 122°28'4 8.9
2017-Nov-07 20:00N 47°50' W 122°29'4 8.2
2017-Nov-07 19:30N 47°54' W 122°31'4 7.3
2017-Nov-07 18:59N 47°57' W 122°35'5 8.1
2017-Nov-07 18:21N 47°60' W 122°41'2 0.4
2017-Nov-07 13:40N 48°01' W 122°38'1 3.9
2017-Nov-07 13:30N 48°00' W 122°38'2 3.5
2017-Nov-07 13:00N 47°58' W 122°37'2 3.4
2017-Nov-07 12:31N 47°57' W 122°36'1 2.8
2017-Nov-07 12:00N 47°56' W 122°34'1 1.8
2017-Nov-07 11:30N 47°56' W 122°33'1 2.4
2017-Nov-07 11:01N 47°55' W 122°32'2 3.6
2017-Nov-07 10:31N 47°54' W 122°30'3 5.4
2017-Nov-07 10:00N 47°51' W 122°29'3 5.4
2017-Nov-07 09:30N 47°48' W 122°28'3 5.7
2017-Nov-07 09:00N 47°45' W 122°28'3 5.4
2017-Nov-07 08:30N 47°43' W 122°28'3 5.9
2017-Nov-07 08:00N 47°40' W 122°27'  
Track history (hours):
 
Tides and Currents Weather Stations Pressure Air Temp Water Temp Dewpoint Dewpoint Depression Visibility Wind Speed Wind Dir Waves Ship Positions

Island Wind

Owner: Island Tug and Barge, Seattle, WA. More information available from US FCC via Universal Licensing System and Coast Guard Vessel Documentation Center.

Last reported at 2017-Nov-17 07:45 UTC. Time now 2017-Nov-21 02:22 UTC.
Position N 47°34' W 122°21'.

Length 30 m.

Type: Towing. MMSI: 359195462.

Date/timePositionNaut miles runAvg speedWind from/ knotsBaromVisibWave heightAir tempDewpointWater temp
2017-Nov-17 07:45N 47°34' W 122°21'0 0.4
2017-Nov-17 07:30N 47°34' W 122°21'3 5.8
2017-Nov-17 07:00N 47°34' W 122°26'510.3
2017-Nov-17 06:30N 47°30' W 122°30'611.0
2017-Nov-17 06:00N 47°25' W 122°32'510.0
2017-Nov-17 05:30N 47°20' W 122°31'5 2.9
2017-Nov-17 03:50N 47°17' W 122°25'1 4.3
2017-Nov-17 03:30N 47°18' W 122°27'3 6.6
2017-Nov-17 03:00N 47°20' W 122°31'3 6.0
2017-Nov-17 02:30N 47°22' W 122°32'3 5.3
2017-Nov-17 02:00N 47°25' W 122°32'3 5.4
2017-Nov-17 01:30N 47°28' W 122°31'3 5.6
2017-Nov-17 01:00N 47°30' W 122°29'3 5.5
2017-Nov-17 00:30N 47°33' W 122°28'3 6.0
2017-Nov-17 00:00N 47°35' W 122°25'2 3.5
2017-Nov-16 23:30N 47°35' W 122°22'2 5.0
2017-Nov-16 23:00N 47°35' W 122°26'5 9.6
2017-Nov-16 22:30N 47°30' W 122°29'5 9.7
2017-Nov-16 22:00N 47°26' W 122°31'5 9.7
2017-Nov-16 21:30N 47°21' W 122°32'5 9.5
2017-Nov-16 21:00N 47°18' W 122°27'0 0.5
2017-Nov-16 20:30N 47°18' W 122°26'4 7.3
2017-Nov-16 20:00N 47°20' W 122°31'4 7.1
2017-Nov-16 19:30N 47°23' W 122°32'4 7.3
2017-Nov-16 19:00N 47°27' W 122°31'4 7.3
2017-Nov-16 18:30N 47°30' W 122°29'3 6.1
2017-Nov-16 18:00N 47°33' W 122°28'3 5.8
2017-Nov-16 17:30N 47°35' W 122°25'2 4.5
2017-Nov-16 17:00N 47°37' W 122°23'0 0.9
2017-Nov-16 16:30N 47°36' W 122°23'1 1.6
2017-Nov-16 16:01N 47°35' W 122°22'1 2.3
2017-Nov-16 15:30N 47°34' W 122°21'0 0.0
2017-Nov-16 00:10N 47°34' W 122°21'0 0.0
2017-Nov-16 00:01N 47°34' W 122°21'3 6.7
2017-Nov-15 23:31N 47°37' W 122°24'4 8.0
2017-Nov-15 23:00N 47°41' W 122°26'4 8.7
2017-Nov-15 22:30N 47°45' W 122°25'4 8.8
2017-Nov-15 22:00N 47°49' W 122°24'5 9.1
2017-Nov-15 21:30N 47°54' W 122°22'5 9.0
2017-Nov-15 21:00N 47°58' W 122°20'510.1
2017-Nov-15 20:30N 48°03' W 122°23'4 7.1
2017-Nov-15 20:00N 48°05' W 122°27'11 7.3
2017-Nov-15 18:26N 48°16' W 122°32'4 7.7
2017-Nov-15 17:57N 48°20' W 122°32'3 5.6
2017-Nov-15 17:20N 48°23' W 122°30'3 7.8
2017-Nov-15 17:00N 48°26' W 122°30'4 7.8
2017-Nov-15 16:31N 48°29' W 122°32'4 8.3
2017-Nov-15 16:00N 48°33' W 122°34'4 7.2
2017-Nov-15 15:30N 48°36' W 122°37'4 8.3
2017-Nov-15 15:00N 48°40' W 122°40'4 7.9
2017-Nov-15 14:30N 48°43' W 122°45'4 7.6
2017-Nov-15 14:00N 48°45' W 122°49'5 6.5
2017-Nov-15 13:14N 48°48' W 122°55'2 6.4
2017-Nov-15 12:55N 48°50' W 122°57'5 4.7
2017-Nov-15 11:48N 48°54' W 123°01'1 3.9
2017-Nov-15 11:26N 48°55' W 123°03'2 4.0
2017-Nov-15 10:53N 48°57' W 123°05'2 3.9
2017-Nov-15 10:26N 48°58' W 123°07'2 4.2
2017-Nov-15 09:58N 48°59' W 123°10'2 3.3
2017-Nov-15 09:15N 49°00' W 123°13'1 3.0
2017-Nov-15 08:59N 49°01' W 123°13'2 2.6
2017-Nov-15 08:16N 49°02' W 123°16'1 3.3
2017-Nov-15 07:50N 49°03' W 123°17'2 4.8
2017-Nov-15 07:29N 49°05' W 123°19'3 6.6
2017-Nov-15 07:00N 49°07' W 123°16'3 5.1
2017-Nov-15 06:25N 49°07' W 123°11'1 1.5
2017-Nov-15 06:00N 49°07' W 123°12'1 1.5
2017-Nov-15 05:28N 49°08' W 123°13'1 1.8
2017-Nov-15 05:00N 49°08' W 123°15'1 2.1
2017-Nov-15 04:27N 49°07' W 123°16'1 1.3
2017-Nov-15 03:58N 49°07' W 123°17'1 1.1
2017-Nov-15 03:30N 49°06' W 123°18'1 1.5
2017-Nov-15 03:00N 49°06' W 123°18'1 1.7
2017-Nov-15 02:30N 49°05' W 123°19'3 4.0
2017-Nov-15 01:50N 49°03' W 123°17'2 5.5
2017-Nov-15 01:29N 49°02' W 123°16'3 5.3
2017-Nov-15 01:00N 49°00' W 123°13'3 5.5
2017-Nov-15 00:30N 48°58' W 123°10'3 5.6
2017-Nov-15 00:00N 48°56' W 123°06'18 7.2
2017-Nov-14 21:29N 48°45' W 122°45'4 8.2
2017-Nov-14 21:01N 48°41' W 122°43'4 8.0
2017-Nov-14 20:30N 48°37' W 122°44'5 9.0
2017-Nov-14 20:00N 48°33' W 122°45'4 8.7
2017-Nov-14 19:30N 48°29' W 122°44'4 8.4
2017-Nov-14 19:00N 48°24' W 122°44'24 6.5
2017-Nov-14 15:22N 48°01' W 122°37'3 7.5
2017-Nov-14 15:00N 47°59' W 122°35'4 8.2
2017-Nov-14 14:30N 47°56' W 122°30'4 7.1
2017-Nov-14 14:00N 47°53' W 122°28'4 7.8
2017-Nov-14 13:30N 47°49' W 122°27'4 7.8
2017-Nov-14 13:00N 47°45' W 122°26'4 7.5
2017-Nov-14 12:30N 47°42' W 122°26'4 7.4
2017-Nov-14 12:00N 47°38' W 122°26'3 6.7
2017-Nov-14 11:31N 47°36' W 122°22'2 3.1
2017-Nov-14 11:01N 47°34' W 122°22'1 1.5
2017-Nov-14 10:30N 47°34' W 122°21'0 0.1
2017-Nov-14 10:01N 47°34' W 122°21'1 2.9
2017-Nov-14 09:31N 47°35' W 122°22'1 1.0
2017-Nov-14 09:01N 47°36' W 122°22'1 1.7
2017-Nov-14 08:31N 47°36' W 122°23'3 5.7
2017-Nov-14 08:01N 47°38' W 122°26'3 5.3
2017-Nov-14 07:31N 47°41' W 122°27'3 5.2
2017-Nov-14 07:00N 47°43' W 122°26'2 4.7
2017-Nov-14 06:30N 47°46' W 122°25'2 4.7
2017-Nov-14 06:00N 47°48' W 122°25'2 4.0
2017-Nov-14 05:31N 47°50' W 122°24'2 4.0
2017-Nov-14 05:00N 47°52' W 122°26'2 4.7
2017-Nov-14 04:31N 47°53' W 122°28'2 4.3
2017-Nov-14 04:00N 47°55' W 122°30'3 5.3
2017-Nov-14 03:29N 47°57' W 122°33'2 4.4
2017-Nov-14 02:57N 47°58' W 122°36'3 3.3
2017-Nov-14 02:04N 48°01' W 122°37'0 2.8
2017-Nov-14 01:58N 48°01' W 122°37'2 3.3
2017-Nov-14 01:18N 48°03' W 122°37'1 2.6
2017-Nov-14 00:59N 48°04' W 122°37'75 3.3
2017-Nov-13 02:00N 49°15' W 123°15'0 0.0
2017-Nov-13 01:30N 49°15' W 123°15'0 0.0
2017-Nov-13 01:00N 49°15' W 123°15'0 0.0
2017-Nov-13 00:31N 49°15' W 123°15'0 0.0
2017-Nov-13 00:00N 49°15' W 123°15'0 0.0
2017-Nov-12 23:30N 49°15' W 123°15'0 0.0
2017-Nov-12 23:00N 49°15' W 123°15'0 0.0
2017-Nov-12 22:30N 49°15' W 123°15'0 0.0
2017-Nov-12 22:00N 49°15' W 123°15'0 0.0
2017-Nov-12 21:31N 49°15' W 123°15'0 0.0
2017-Nov-12 21:00N 49°15' W 123°15'0 0.0
2017-Nov-12 20:30N 49°15' W 123°15'0 0.0
2017-Nov-12 20:00N 49°15' W 123°15'0 0.0
2017-Nov-12 19:30N 49°15' W 123°15'0 0.0
2017-Nov-12 19:00N 49°15' W 123°15'0 0.0
2017-Nov-12 18:30N 49°15' W 123°15'0 0.0
2017-Nov-12 18:00N 49°15' W 123°15'0 0.0
2017-Nov-12 17:30N 49°15' W 123°15'0 0.0
2017-Nov-12 17:00N 49°15' W 123°15'0 0.0
2017-Nov-12 16:30N 49°15' W 123°15'0 0.0
2017-Nov-12 16:00N 49°15' W 123°15'0 0.0
2017-Nov-12 15:30N 49°15' W 123°15'0 0.0
2017-Nov-12 15:00N 49°15' W 123°15'0 0.0
2017-Nov-12 14:30N 49°15' W 123°15'0 0.0
2017-Nov-12 14:00N 49°15' W 123°15'0 0.0
2017-Nov-12 13:30N 49°15' W 123°15'0 0.0
2017-Nov-12 13:00N 49°15' W 123°15'0 0.0
2017-Nov-12 12:30N 49°15' W 123°15'0 0.0
2017-Nov-12 12:00N 49°15' W 123°15'0 0.0
2017-Nov-12 11:30N 49°15' W 123°15'0 0.0
2017-Nov-12 11:00N 49°15' W 123°15'0 0.0
2017-Nov-12 10:30N 49°15' W 123°15'0 0.0
2017-Nov-12 10:00N 49°15' W 123°15'0 0.0
2017-Nov-12 09:30N 49°15' W 123°15'0 0.0
2017-Nov-12 08:59N 49°15' W 123°15'0 0.0
2017-Nov-12 08:30N 49°15' W 123°15'1 1.6
2017-Nov-12 08:00N 49°15' W 123°16'1 2.3
2017-Nov-12 07:30N 49°15' W 123°18'1 2.4
2017-Nov-12 07:00N 49°14' W 123°18'2 4.1
2017-Nov-12 06:30N 49°12' W 123°19'2 4.1
2017-Nov-12 06:00N 49°10' W 123°20'2 4.4
2017-Nov-12 05:30N 49°07' W 123°20'2 4.3
2017-Nov-12 05:00N 49°05' W 123°20'2 4.5
2017-Nov-12 04:30N 49°03' W 123°18'3 4.7
2017-Nov-12 03:57N 49°02' W 123°15'2 4.2
2017-Nov-12 03:31N 49°00' W 123°13'2 4.0
2017-Nov-12 02:58N 48°59' W 123°11'2 3.9
2017-Nov-12 02:28N 48°58' W 123°09'3 4.2
2017-Nov-12 01:48N 48°56' W 123°06'1 3.3
2017-Nov-12 01:28N 48°55' W 123°04'2 2.8
2017-Nov-12 00:48N 48°54' W 123°02'1 3.3
2017-Nov-12 00:23N 48°53' W 123°00'13 4.2
2017-Nov-11 21:20N 48°45' W 122°45'2 4.6
2017-Nov-11 20:59N 48°43' W 122°44'3 5.3
2017-Nov-11 20:31N 48°41' W 122°43'3 5.1
2017-Nov-11 20:01N 48°39' W 122°43'3 5.0
2017-Nov-11 19:29N 48°36' W 122°45'4 8.8
2017-Nov-11 19:00N 48°32' W 122°44'5 9.9
2017-Nov-11 18:30N 48°27' W 122°44'5 8.9
2017-Nov-11 17:57N 48°22' W 122°45'19 5.1
2017-Nov-11 14:13N 48°04' W 122°38'2 7.0
2017-Nov-11 13:59N 48°02' W 122°37'4 7.3
2017-Nov-11 13:30N 47°59' W 122°35'4 7.5
2017-Nov-11 13:00N 47°56' W 122°31'4 7.7
2017-Nov-11 12:30N 47°53' W 122°28'4 8.2
2017-Nov-11 12:01N 47°49' W 122°26'4 8.2
2017-Nov-11 11:31N 47°45' W 122°26'4 8.3
2017-Nov-11 11:01N 47°41' W 122°27'4 7.8
2017-Nov-11 10:30N 47°37' W 122°25'3 5.6
2017-Nov-11 10:01N 47°35' W 122°22'2 3.0
2017-Nov-11 09:31N 47°34' W 122°21'0 0.9
2017-Nov-11 09:00N 47°34' W 122°21'0 0.0
2017-Nov-11 08:31N 47°34' W 122°21'0 0.0
2017-Nov-11 08:01N 47°34' W 122°21'0 0.0
2017-Nov-11 07:31N 47°34' W 122°21'0 0.0
2017-Nov-11 07:00N 47°34' W 122°21'0 0.0
2017-Nov-11 06:30N 47°34' W 122°21'0 0.0
2017-Nov-11 06:01N 47°34' W 122°21'0 0.0
2017-Nov-11 05:31N 47°34' W 122°21'0 0.0
2017-Nov-11 05:00N 47°34' W 122°21'0 0.0
2017-Nov-11 04:30N 47°34' W 122°21'1 1.1
2017-Nov-11 04:00N 47°34' W 122°21'0 0.0
2017-Nov-11 03:30N 47°34' W 122°21'0 0.3
2017-Nov-11 03:00N 47°34' W 122°21'0 0.3
2017-Nov-11 02:30N 47°34' W 122°21'1 2.6
2017-Nov-11 02:01N 47°35' W 122°22'2 4.2
2017-Nov-11 01:30N 47°36' W 122°25'3 5.2
2017-Nov-11 01:00N 47°33' W 122°27'3 5.8
2017-Nov-11 00:31N 47°31' W 122°29'3 6.5
2017-Nov-11 00:00N 47°28' W 122°31'3 6.3
2017-Nov-10 23:30N 47°25' W 122°32'3 6.1
2017-Nov-10 23:01N 47°22' W 122°32'4 7.0
2017-Nov-10 22:30N 47°18' W 122°33'4 7.6
2017-Nov-10 21:58N 47°14' W 122°34'3 6.6
2017-Nov-10 21:30N 47°12' W 122°37'3 6.0
2017-Nov-10 21:00N 47°09' W 122°39'1 1.3
2017-Nov-10 20:20N 47°08' W 122°39'1 1.7
2017-Nov-10 20:01N 47°09' W 122°38'0 0.0
2017-Nov-10 19:25N 47°09' W 122°38'0 0.0
2017-Nov-10 18:58N 47°09' W 122°38'0 0.1
2017-Nov-10 18:30N 47°09' W 122°38'0 0.1
2017-Nov-10 17:57N 47°09' W 122°38'0 0.0
2017-Nov-10 17:29N 47°09' W 122°38'0 0.0
2017-Nov-10 16:52N 47°09' W 122°38'1 1.5
2017-Nov-10 16:30N 47°08' W 122°39'0 0.1
2017-Nov-10 15:55N 47°08' W 122°39'0 0.0
2017-Nov-10 15:30N 47°08' W 122°39'0 0.1
2017-Nov-10 14:52N 47°08' W 122°39'1 1.5
2017-Nov-10 14:10N 47°09' W 122°39'0 2.3
2017-Nov-10 13:58N 47°10' W 122°39'3 5.9
2017-Nov-10 13:27N 47°12' W 122°37'4 7.9
2017-Nov-10 12:59N 47°15' W 122°34'4 7.9
2017-Nov-10 12:30N 47°19' W 122°34'3 5.8
2017-Nov-10 12:00N 47°22' W 122°32'3 5.2
2017-Nov-10 11:30N 47°25' W 122°32'3 5.3
2017-Nov-10 11:00N 47°27' W 122°31'3 5.3
2017-Nov-10 10:30N 47°30' W 122°30'3 5.0
2017-Nov-10 10:00N 47°32' W 122°28'3 5.4
2017-Nov-10 09:31N 47°34' W 122°27'3 5.2
2017-Nov-10 09:00N 47°36' W 122°24'2 3.9
2017-Nov-10 08:30N 47°35' W 122°22'1 2.3
2017-Nov-10 08:01N 47°34' W 122°21'1 1.4
2017-Nov-10 07:31N 47°34' W 122°21'0 0.0
2017-Nov-10 07:00N 47°34' W 122°21'0 0.0
2017-Nov-10 06:30N 47°34' W 122°21'0 0.0
2017-Nov-10 06:01N 47°34' W 122°21'0 0.0
2017-Nov-10 05:30N 47°34' W 122°21'0 0.0
2017-Nov-10 04:50N 47°34' W 122°21'0 0.0
2017-Nov-10 04:28N 47°34' W 122°21'0 0.0
2017-Nov-10 03:57N 47°34' W 122°21'0 0.0
2017-Nov-10 03:24N 47°34' W 122°21'0 0.0
2017-Nov-10 03:01N 47°34' W 122°21'2 4.5
2017-Nov-10 02:30N 47°35' W 122°24'4 7.9
2017-Nov-10 02:00N 47°32' W 122°26'4 7.6
2017-Nov-10 01:31N 47°29' W 122°30'4 8.7
2017-Nov-10 01:00N 47°25' W 122°32'4 8.6
2017-Nov-10 00:30N 47°21' W 122°32'4 8.1
2017-Nov-10 00:01N 47°18' W 122°27'3 5.7
2017-Nov-09 23:31N 47°16' W 122°24'2 3.3
2017-Nov-09 23:00N 47°17' W 122°26'2 3.5
2017-Nov-09 22:31N 47°18' W 122°28'2 4.1
2017-Nov-09 22:00N 47°19' W 122°31'2 3.5
2017-Nov-09 21:30N 47°19' W 122°33'3 6.9
2017-Nov-09 21:00N 47°15' W 122°34'3 6.2
2017-Nov-09 20:30N 47°13' W 122°36'3 5.6
2017-Nov-09 19:59N 47°10' W 122°38'2 3.3
2017-Nov-09 19:22N 47°08' W 122°39'0 0.0
2017-Nov-09 18:59N 47°08' W 122°39'0 0.0
2017-Nov-09 18:28N 47°08' W 122°39'0 0.0
2017-Nov-09 17:59N 47°08' W 122°39'1 2.3
2017-Nov-09 17:28N 47°09' W 122°39'4 7.6
2017-Nov-09 17:00N 47°12' W 122°36'510.0
2017-Nov-09 16:30N 47°17' W 122°33'3 5.3
2017-Nov-09 16:01N 47°19' W 122°30'4 7.9
2017-Nov-09 15:30N 47°17' W 122°25'0 0.7
2017-Nov-09 15:00N 47°17' W 122°25'0 0.2
2017-Nov-09 13:12N 47°17' W 122°24'1 3.5
2017-Nov-09 13:00N 47°17' W 122°25'1 1.8
2017-Nov-09 12:31N 47°17' W 122°27'0 0.2
2017-Nov-09 12:00N 47°17' W 122°26'0 0.4
2017-Nov-09 11:30N 47°18' W 122°27'1 1.8
2017-Nov-09 11:01N 47°18' W 122°28'2 3.0
2017-Nov-09 10:30N 47°19' W 122°30'2 3.1
2017-Nov-09 10:00N 47°19' W 122°32'2 3.5
2017-Nov-09 09:30N 47°18' W 122°33'4 7.3
2017-Nov-09 09:00N 47°14' W 122°35'3 5.8
2017-Nov-09 08:30N 47°12' W 122°36'3 5.0
2017-Nov-09 08:00N 47°10' W 122°39'2 2.9
2017-Nov-09 07:29N 47°08' W 122°39'0 0.0
2017-Nov-09 07:00N 47°08' W 122°39'0 0.0
2017-Nov-09 06:30N 47°08' W 122°39'0 0.0
2017-Nov-09 05:58N 47°08' W 122°39'0 0.0
2017-Nov-09 05:30N 47°08' W 122°39'0 0.0
2017-Nov-09 04:58N 47°08' W 122°39'0 0.0
2017-Nov-09 04:28N 47°08' W 122°39'0 0.0
2017-Nov-09 04:00N 47°08' W 122°39'0 0.0
2017-Nov-09 03:30N 47°08' W 122°39'0 0.0
2017-Nov-09 02:57N 47°08' W 122°39'0 0.0
2017-Nov-09 02:30N 47°08' W 122°39'1 1.1
2017-Nov-09 02:00N 47°09' W 122°38'0 0.0
2017-Nov-09 01:16N 47°09' W 122°38'0 0.0
2017-Nov-09 00:58N 47°09' W 122°38'0 0.0
2017-Nov-09 00:29N 47°09' W 122°38'0 0.0
2017-Nov-08 23:47N 47°09' W 122°38'1 2.1
2017-Nov-08 23:30N 47°08' W 122°39'3 5.2
2017-Nov-08 23:00N 47°11' W 122°39'2 4.5
2017-Nov-08 22:30N 47°12' W 122°37'3 5.1
2017-Nov-08 22:00N 47°14' W 122°34'2 3.9
2017-Nov-08 21:30N 47°16' W 122°33'2 3.8
2017-Nov-08 21:00N 47°18' W 122°33'1 3.1
2017-Nov-08 20:31N 47°19' W 122°32'3 6.3
2017-Nov-08 20:00N 47°18' W 122°28'3 1.2
2017-Nov-08 17:46N 47°17' W 122°24'2 7.6
2017-Nov-08 17:30N 47°18' W 122°27'4 8.3
2017-Nov-08 17:00N 47°20' W 122°32'4 8.4
2017-Nov-08 16:30N 47°24' W 122°32'4 8.4
2017-Nov-08 16:01N 47°28' W 122°31'4 8.6
2017-Nov-08 15:30N 47°32' W 122°28'4 8.4
2017-Nov-08 15:01N 47°36' W 122°24'2 4.6
2017-Nov-08 14:30N 47°34' W 122°21'0 0.6
2017-Nov-08 14:01N 47°34' W 122°21'0 0.6
2017-Nov-08 13:31N 47°34' W 122°21'1 1.3
2017-Nov-08 13:01N 47°34' W 122°21'0 0.0
2017-Nov-08 12:31N 47°34' W 122°21'0 0.0
2017-Nov-08 12:00N 47°34' W 122°21'0 0.0
2017-Nov-08 11:31N 47°34' W 122°21'0 0.0
2017-Nov-08 11:01N 47°34' W 122°21'0 0.0
2017-Nov-08 10:31N 47°34' W 122°21'0 0.0
2017-Nov-08 10:00N 47°34' W 122°21'0 0.0
2017-Nov-08 09:30N 47°34' W 122°21'0 0.0
2017-Nov-08 09:01N 47°34' W 122°21'0 0.0
2017-Nov-08 08:31N 47°34' W 122°21'0 0.0
2017-Nov-08 08:00N 47°34' W 122°21'0 0.0
2017-Nov-08 07:31N 47°34' W 122°21'0 0.0
2017-Nov-08 07:01N 47°34' W 122°21'0 0.0
2017-Nov-08 06:31N 47°34' W 122°21'1 1.3
2017-Nov-08 06:00N 47°34' W 122°21'1 1.3
2017-Nov-08 05:30N 47°34' W 122°21'0 0.0
2017-Nov-08 05:00N 47°34' W 122°21'0 0.0
2017-Nov-08 04:30N 47°34' W 122°21'1 1.3
2017-Nov-08 04:00N 47°34' W 122°21'1 1.4
2017-Nov-08 03:30N 47°34' W 122°21'0 0.8
2017-Nov-08 03:00N 47°34' W 122°21'0 0.6
2017-Nov-08 02:30N 47°34' W 122°21'0 0.0
2017-Nov-08 02:00N 47°34' W 122°21'0 0.0
2017-Nov-08 01:29N 47°34' W 122°21'0 0.0
2017-Nov-08 01:01N 47°34' W 122°21'0 0.0
2017-Nov-08 00:31N 47°34' W 122°21'0 0.0
2017-Nov-08 00:01N 47°34' W 122°21'0 0.0
2017-Nov-07 23:30N 47°34' W 122°21'0 0.0
2017-Nov-07 23:00N 47°34' W 122°21'1 1.2
2017-Nov-07 22:30N 47°35' W 122°22'3 5.5
2017-Nov-07 22:00N 47°37' W 122°24'3 5.8
2017-Nov-07 21:31N 47°39' W 122°27'3 6.1
2017-Nov-07 21:00N 47°43' W 122°26'3 7.0
2017-Nov-07 20:30N 47°46' W 122°28'4 8.9
2017-Nov-07 20:00N 47°50' W 122°29'4 8.2
2017-Nov-07 19:30N 47°54' W 122°31'4 7.3
2017-Nov-07 18:59N 47°57' W 122°35'5 8.1
2017-Nov-07 18:21N 47°60' W 122°41'2 0.4
2017-Nov-07 13:40N 48°01' W 122°38'1 3.9
2017-Nov-07 13:30N 48°00' W 122°38'2 3.5
2017-Nov-07 13:00N 47°58' W 122°37'2 3.4
2017-Nov-07 12:31N 47°57' W 122°36'1 2.8
2017-Nov-07 12:00N 47°56' W 122°34'1 1.8
2017-Nov-07 11:30N 47°56' W 122°33'1 2.4
2017-Nov-07 11:01N 47°55' W 122°32'2 3.6
2017-Nov-07 10:31N 47°54' W 122°30'3 5.4
2017-Nov-07 10:00N 47°51' W 122°29'3 5.4
2017-Nov-07 09:30N 47°48' W 122°28'3 5.7
2017-Nov-07 09:00N 47°45' W 122°28'3 5.4
2017-Nov-07 08:30N 47°43' W 122°28'3 5.9
2017-Nov-07 08:00N 47°40' W 122°27'  

Dump ship's entire track history